createdAt,value
2023-02-22T00:01:51.151Z,8.97
2023-02-22T00:04:39.742Z,8.94
2023-02-22T00:07:26.077Z,8.90
2023-02-22T00:10:14.604Z,8.82
2023-02-22T00:13:00.647Z,8.77
2023-02-22T00:15:46.443Z,8.73
2023-02-22T00:18:32.238Z,8.70
2023-02-22T00:21:18.515Z,8.69
2023-02-22T00:24:22.977Z,8.64
2023-02-22T00:27:09.159Z,8.59
2023-02-22T00:29:56.630Z,8.41
2023-02-22T00:32:43.204Z,8.53
2023-02-22T00:35:30.620Z,8.50
2023-02-22T00:38:18.596Z,8.41
2023-02-22T00:41:04.809Z,8.45
2023-02-22T00:43:50.888Z,8.38
2023-02-22T00:46:38.609Z,8.34
2023-02-22T00:49:26.147Z,8.35
2023-02-22T00:52:12.484Z,8.32
2023-02-22T00:55:00.065Z,8.35
2023-02-22T00:57:45.929Z,8.31
2023-02-22T01:00:33.519Z,8.28
2023-02-22T01:03:20.974Z,8.16
2023-02-22T01:06:07.765Z,8.16
2023-02-22T01:08:53.935Z,8.26
2023-02-22T01:11:41.558Z,8.17
2023-02-22T01:14:28.147Z,8.18
2023-02-22T01:17:14.337Z,8.15
2023-02-22T01:20:00.004Z,8.11
2023-02-22T01:22:48.491Z,8.12
2023-02-22T01:25:35.431Z,8.05
2023-02-22T01:28:22.597Z,8.01
2023-02-22T01:31:09.167Z,8.05
2023-02-22T01:33:55.129Z,7.99
2023-02-22T01:36:41.324Z,8.00
2023-02-22T01:39:28.637Z,7.90
2023-02-22T01:42:14.496Z,7.88
2023-02-22T01:45:32.773Z,7.86
2023-02-22T01:48:25.013Z,7.84
2023-02-22T01:51:20.854Z,7.73
2023-02-22T01:54:11.045Z,7.75
2023-02-22T01:57:06.144Z,7.73
2023-02-22T01:59:56.862Z,7.73
2023-02-22T02:02:49.476Z,7.67
2023-02-22T02:05:39.834Z,7.63
2023-02-22T02:08:36.150Z,7.58
2023-02-22T02:11:25.596Z,7.59
2023-02-22T02:14:12.793Z,7.55
2023-02-22T02:17:01.567Z,7.52
2023-02-22T02:20:01.289Z,7.49
2023-02-22T02:23:06.339Z,7.48
2023-02-22T02:26:23.046Z,7.42
2023-02-22T02:29:18.236Z,7.35
2023-02-22T02:32:10.344Z,7.30
2023-02-22T02:34:57.725Z,7.28
2023-02-22T02:38:15.001Z,7.29
2023-02-22T02:41:32.374Z,7.26
2023-02-22T02:44:27.642Z,7.24
2023-02-22T02:47:24.025Z,7.20
2023-02-22T02:50:47.179Z,7.13
2023-02-22T02:53:36.513Z,7.16
2023-02-22T02:56:23.589Z,7.09
2023-02-22T02:59:27.641Z,7.10
2023-02-22T03:02:25.761Z,7.11
2023-02-22T03:05:11.678Z,7.10
2023-02-22T03:08:34.533Z,7.01
2023-02-22T03:11:23.879Z,6.99
2023-02-22T03:14:27.628Z,6.90
2023-02-22T03:17:41.468Z,6.79
2023-02-22T03:20:32.443Z,6.91
2023-02-22T03:23:43.696Z,6.85
2023-02-22T03:26:36.418Z,6.82
2023-02-22T03:29:25.135Z,6.81
2023-02-22T03:32:16.817Z,6.82
2023-02-22T03:35:13.115Z,6.68
2023-02-22T03:38:02.991Z,6.77
2023-02-22T03:40:52.259Z,6.81
2023-02-22T03:43:42.017Z,6.80
2023-02-22T03:46:33.060Z,6.75
2023-02-22T03:49:40.614Z,6.75
2023-02-22T03:52:26.549Z,6.73
2023-02-22T03:55:13.218Z,6.73
2023-02-22T03:58:00.604Z,6.74
2023-02-22T04:00:53.124Z,6.70
2023-02-22T04:03:40.389Z,6.74
2023-02-22T04:06:27.499Z,6.71
2023-02-22T04:09:14.912Z,6.74
2023-02-22T04:12:00.727Z,6.74
2023-02-22T04:14:47.770Z,6.70
2023-02-22T04:17:34.005Z,6.68
2023-02-22T04:20:25.627Z,6.63
2023-02-22T04:23:17.047Z,6.66
2023-02-22T04:26:03.620Z,6.67
2023-02-22T04:28:50.262Z,6.68
2023-02-22T04:31:38.255Z,6.67
2023-02-22T04:34:25.095Z,6.69
2023-02-22T04:37:12.374Z,6.65
2023-02-22T04:39:58.263Z,6.57
2023-02-22T04:42:44.179Z,6.62
2023-02-22T04:45:30.745Z,6.59
2023-02-22T04:48:16.711Z,6.63
2023-02-22T04:51:02.680Z,6.59
2023-02-22T04:53:51.153Z,6.56
2023-02-22T04:56:37.467Z,6.56
2023-02-22T04:59:24.787Z,6.55
2023-02-22T05:02:18.928Z,6.57
2023-02-22T05:05:05.663Z,6.50
2023-02-22T05:07:51.453Z,6.52
2023-02-22T05:10:37.416Z,6.53
2023-02-22T05:13:23.302Z,6.46
2023-02-22T05:16:09.065Z,6.45
2023-02-22T05:18:54.725Z,6.41
2023-02-22T05:21:40.455Z,6.37
2023-02-22T05:24:26.188Z,6.29
2023-02-22T05:27:12.220Z,6.38
2023-02-22T05:29:57.925Z,6.34
2023-02-22T05:32:46.107Z,6.32
2023-02-22T05:35:32.778Z,6.30
2023-02-22T05:38:18.440Z,6.26
2023-02-22T05:41:04.466Z,6.30
2023-02-22T05:43:50.733Z,6.25
2023-02-22T05:46:36.800Z,6.26
2023-02-22T05:49:23.211Z,6.25
2023-02-22T05:52:08.996Z,6.25
2023-02-22T05:54:54.952Z,6.18
2023-02-22T05:57:41.290Z,6.24
2023-02-22T06:00:30.139Z,6.30
2023-02-22T06:03:16.151Z,6.26
2023-02-22T06:06:02.337Z,6.25
2023-02-22T06:08:48.172Z,6.31
2023-02-22T06:11:34.542Z,6.28
2023-02-22T06:14:20.335Z,6.25
2023-02-22T06:17:06.661Z,6.35
2023-02-22T06:19:52.983Z,6.37
2023-02-22T06:22:41.275Z,6.39
2023-02-22T06:25:31.326Z,6.45
2023-02-22T06:28:17.170Z,6.45
2023-02-22T06:31:03.313Z,6.53
2023-02-22T06:33:48.953Z,6.56
2023-02-22T06:36:34.790Z,6.63
2023-02-22T06:39:20.747Z,6.69
2023-02-22T06:42:06.582Z,6.76
2023-02-22T06:44:52.251Z,6.78
2023-02-22T06:47:40.319Z,6.82
2023-02-22T06:50:32.011Z,6.92
2023-02-22T06:53:18.732Z,6.98
2023-02-22T06:56:05.055Z,7.07
2023-02-22T06:58:51.165Z,7.11
2023-02-22T07:01:37.020Z,7.18
2023-02-22T07:04:22.777Z,7.21
2023-02-22T07:07:08.503Z,7.33
2023-02-22T07:09:54.338Z,7.32
2023-02-22T07:12:40.160Z,7.41
2023-02-22T07:15:27.949Z,7.46
2023-02-22T07:18:14.194Z,7.52
2023-02-22T07:21:00.117Z,7.65
2023-02-22T07:23:56.314Z,7.70
2023-02-22T07:26:42.998Z,7.79
2023-02-22T07:29:28.834Z,7.81
2023-02-22T07:32:14.657Z,7.96
2023-02-22T07:35:02.930Z,8.03
2023-02-22T07:37:48.834Z,8.10
2023-02-22T07:40:35.518Z,8.22
2023-02-22T07:43:24.015Z,8.33
2023-02-22T07:46:11.578Z,8.39
2023-02-22T07:48:57.301Z,8.49
2023-02-22T07:51:43.246Z,8.44
2023-02-22T07:54:28.933Z,8.68
2023-02-22T07:57:15.678Z,8.73
2023-02-22T08:00:02.025Z,8.79
2023-02-22T08:02:48.079Z,8.89
2023-02-22T08:05:34.869Z,9.03
2023-02-22T08:08:20.959Z,9.12
2023-02-22T08:11:07.107Z,9.14
2023-02-22T08:13:53.063Z,9.36
2023-02-22T08:16:38.730Z,9.43
2023-02-22T08:19:24.692Z,9.46
2023-02-22T08:22:10.522Z,9.71
2023-02-22T08:24:56.327Z,9.78
2023-02-22T08:27:43.845Z,9.88
2023-02-22T08:30:31.411Z,10.04
2023-02-22T08:33:19.819Z,10.13
2023-02-22T08:36:06.181Z,10.25
2023-02-22T08:38:52.354Z,10.40
2023-02-22T08:41:38.178Z,10.49
2023-02-22T08:44:24.530Z,10.62
2023-02-22T08:47:10.407Z,10.74
2023-02-22T08:49:56.232Z,10.88
2023-02-22T08:52:42.138Z,11.00
2023-02-22T08:55:32.322Z,11.13
2023-02-22T08:58:18.306Z,11.26
2023-02-22T09:01:04.309Z,11.42
2023-02-22T09:03:51.458Z,11.53
2023-02-22T09:06:37.409Z,11.56
2023-02-22T09:09:23.555Z,11.76
2023-02-22T09:12:10.080Z,11.90
2023-02-22T09:14:55.726Z,11.96
2023-02-22T09:17:41.520Z,12.05
2023-02-22T09:20:27.792Z,12.23
2023-02-22T09:23:14.582Z,12.29
2023-02-22T09:26:01.042Z,12.46
2023-02-22T09:28:46.827Z,12.62
2023-02-22T09:31:35.812Z,12.63
2023-02-22T09:34:29.596Z,12.86
2023-02-22T09:37:15.483Z,12.96
2023-02-22T09:40:01.482Z,13.05
2023-02-22T09:42:57.049Z,13.10
2023-02-22T09:45:49.060Z,13.27
2023-02-22T09:48:36.699Z,13.34
2023-02-22T09:51:26.676Z,13.50
2023-02-22T09:54:27.238Z,13.67
2023-02-22T09:57:16.417Z,13.80
2023-02-22T10:00:13.734Z,13.91
2023-02-22T10:03:23.007Z,13.94
2023-02-22T10:06:15.017Z,14.24
2023-02-22T10:09:08.206Z,14.37
2023-02-22T10:11:58.585Z,14.55
2023-02-22T10:14:55.525Z,14.67
2023-02-22T10:17:48.153Z,14.90
2023-02-22T10:20:52.215Z,14.96
2023-02-22T10:24:04.564Z,15.10
2023-02-22T10:26:51.269Z,15.27
2023-02-22T10:29:47.187Z,15.37
2023-02-22T10:32:43.382Z,15.51
2023-02-22T10:35:33.743Z,15.61
2023-02-22T10:38:28.321Z,15.70
2023-02-22T10:41:24.363Z,15.72
2023-02-22T10:44:10.522Z,15.91
2023-02-22T10:46:56.639Z,16.03
2023-02-22T10:49:55.712Z,16.00
2023-02-22T10:52:41.870Z,16.13
2023-02-22T10:55:27.821Z,16.16
2023-02-22T10:58:14.041Z,16.25
2023-02-22T11:01:00.203Z,16.36
2023-02-22T11:03:46.158Z,16.34
2023-02-22T11:06:33.917Z,16.41
2023-02-22T11:09:24.603Z,16.63
2023-02-22T11:12:15.646Z,16.74
2023-02-22T11:15:24.348Z,16.61
2023-02-22T11:18:23.240Z,16.83
2023-02-22T11:21:11.707Z,16.88
2023-02-22T11:24:09.587Z,16.88
2023-02-22T11:26:58.995Z,16.95
2023-02-22T11:29:50.893Z,17.05
2023-02-22T11:32:43.510Z,17.16
2023-02-22T11:35:29.313Z,17.23
2023-02-22T11:38:29.763Z,17.23
2023-02-22T11:41:19.353Z,17.36
2023-02-22T11:44:29.764Z,17.34
2023-02-22T11:47:15.848Z,17.40
2023-02-22T11:50:02.379Z,17.44
2023-02-22T11:52:52.826Z,17.50
2023-02-22T11:55:45.068Z,17.54
2023-02-22T11:58:48.614Z,17.33
2023-02-22T12:01:37.639Z,17.55
2023-02-22T12:04:44.811Z,17.54
2023-02-22T12:07:52.311Z,17.72
2023-02-22T12:11:10.222Z,17.63
2023-02-22T12:13:56.291Z,17.83
2023-02-22T12:16:45.073Z,17.94
2023-02-22T12:19:36.205Z,17.87
2023-02-22T12:22:28.052Z,17.97
2023-02-22T12:25:26.993Z,17.93
2023-02-22T12:28:24.937Z,18.05
2023-02-22T12:31:19.376Z,18.12
2023-02-22T12:34:41.407Z,17.80
2023-02-22T12:37:35.225Z,18.20
2023-02-22T12:40:31.140Z,18.16
2023-02-22T12:43:34.215Z,18.30
2023-02-22T12:46:21.853Z,18.40
2023-02-22T12:49:20.870Z,18.33
2023-02-22T12:52:35.349Z,18.46
2023-02-22T12:55:25.548Z,18.62
2023-02-22T12:58:31.467Z,18.64
2023-02-22T13:01:20.419Z,18.77
2023-02-22T13:04:20.180Z,18.83
2023-02-22T13:07:48.450Z,18.77
2023-02-22T13:10:53.411Z,18.88
2023-02-22T13:14:16.458Z,18.92
2023-02-22T13:17:27.422Z,19.06
2023-02-22T13:20:43.775Z,18.91
2023-02-22T13:23:46.236Z,19.28
2023-02-22T13:26:43.951Z,19.32
2023-02-22T13:29:35.334Z,19.50
2023-02-22T13:32:25.105Z,19.62
2023-02-22T13:35:20.539Z,19.75
2023-02-22T13:38:35.742Z,19.93
2023-02-22T13:41:45.139Z,20.04
2023-02-22T13:44:46.262Z,20.12
2023-02-22T13:47:57.977Z,20.28
2023-02-22T13:50:48.838Z,20.44
2023-02-22T13:53:56.077Z,20.43
2023-02-22T13:56:47.145Z,20.99
2023-02-22T13:59:37.206Z,21.58
2023-02-22T14:02:57.834Z,22.13
2023-02-22T14:05:46.798Z,22.63
2023-02-22T14:08:33.792Z,23.09
2023-02-22T14:11:19.769Z,23.53
2023-02-22T14:14:05.615Z,23.58
2023-02-22T14:17:21.991Z,23.42
2023-02-22T14:20:19.589Z,23.34
2023-02-22T14:23:23.747Z,23.27
2023-02-22T14:26:14.238Z,23.36
2023-02-22T14:29:09.110Z,23.28
2023-02-22T14:32:07.395Z,23.13
2023-02-22T14:34:55.083Z,22.92
2023-02-22T14:37:41.560Z,22.69
2023-02-22T14:40:32.048Z,22.51
2023-02-22T14:43:22.817Z,22.38
2023-02-22T14:46:13.375Z,22.23
2023-02-22T14:49:04.335Z,22.12
2023-02-22T14:52:00.044Z,21.92
2023-02-22T14:55:13.779Z,21.79
2023-02-22T14:58:06.145Z,21.70
2023-02-22T15:00:53.865Z,21.51
2023-02-22T15:03:39.654Z,21.43
2023-02-22T15:06:28.735Z,21.20
2023-02-22T15:09:29.225Z,21.09
2023-02-22T15:12:30.028Z,20.86
2023-02-22T15:15:22.114Z,20.65
2023-02-22T15:18:22.171Z,20.50
2023-02-22T15:21:13.492Z,20.39
2023-02-22T15:24:02.077Z,20.22
2023-02-22T15:27:00.854Z,20.13
2023-02-22T15:29:47.510Z,19.93
2023-02-22T15:32:53.394Z,19.84
2023-02-22T15:35:44.301Z,19.72
2023-02-22T15:38:30.975Z,19.65
2023-02-22T15:41:27.991Z,19.50
2023-02-22T15:44:23.166Z,19.37
2023-02-22T15:47:18.070Z,19.23
2023-02-22T15:50:25.927Z,18.95
2023-02-22T15:53:21.021Z,18.95
2023-02-22T15:56:20.407Z,18.80
2023-02-22T15:59:12.885Z,18.83
2023-02-22T16:01:59.757Z,18.72
2023-02-22T16:04:54.542Z,18.58
2023-02-22T16:07:50.121Z,18.42
2023-02-22T16:10:37.056Z,18.44
2023-02-22T16:13:32.027Z,18.30
2023-02-22T16:16:20.965Z,18.31
2023-02-22T16:19:32.893Z,18.13
2023-02-22T16:22:29.710Z,18.10
2023-02-22T16:25:18.946Z,18.02
2023-02-22T16:28:30.849Z,17.87
2023-02-22T16:31:17.435Z,17.83
2023-02-22T16:34:06.154Z,17.70
2023-02-22T16:36:52.280Z,17.54
2023-02-22T16:39:38.979Z,17.53
2023-02-22T16:42:25.666Z,17.41
2023-02-22T16:45:16.437Z,17.18
2023-02-22T16:48:21.410Z,17.15
2023-02-22T16:51:10.725Z,17.08
2023-02-22T16:53:56.754Z,16.96
2023-02-22T16:56:42.660Z,16.88
2023-02-22T16:59:29.262Z,16.86
2023-02-22T17:02:15.603Z,16.76
2023-02-22T17:05:01.790Z,16.65
2023-02-22T17:07:47.859Z,16.60
2023-02-22T17:10:34.309Z,16.36
2023-02-22T17:13:26.652Z,16.41
2023-02-22T17:16:16.771Z,16.15
2023-02-22T17:19:05.106Z,16.16
2023-02-22T17:21:51.006Z,16.06
2023-02-22T17:24:39.272Z,16.00
2023-02-22T17:27:25.401Z,15.91
2023-02-22T17:30:13.996Z,15.81
2023-02-22T17:33:03.939Z,15.72
2023-02-22T17:35:50.081Z,15.68
2023-02-22T17:38:36.570Z,15.60
2023-02-22T17:41:22.639Z,15.49
2023-02-22T17:44:08.795Z,15.36
2023-02-22T17:46:54.716Z,15.35
2023-02-22T17:49:40.791Z,15.29
2023-02-22T17:52:30.236Z,15.18
2023-02-22T17:55:17.041Z,15.08
2023-02-22T17:58:03.100Z,15.03
2023-02-22T18:00:50.370Z,14.91
2023-02-22T18:03:40.217Z,14.82
2023-02-22T18:06:30.163Z,14.71
2023-02-22T18:09:17.839Z,14.63
2023-02-22T18:12:04.194Z,14.56
2023-02-22T18:14:50.158Z,14.45
2023-02-22T18:17:36.988Z,14.40
2023-02-22T18:20:38.311Z,14.29
2023-02-22T18:23:27.897Z,14.22
2023-02-22T18:26:21.593Z,14.10
2023-02-22T18:29:07.862Z,14.05
2023-02-22T18:31:54.036Z,13.98
2023-02-22T18:34:40.249Z,13.89
2023-02-22T18:37:28.350Z,13.81
2023-02-22T18:40:14.294Z,13.74
2023-02-22T18:43:00.420Z,13.65
2023-02-22T18:45:46.407Z,13.62
2023-02-22T18:48:32.914Z,13.49
2023-02-22T18:51:18.802Z,13.45
2023-02-22T18:54:04.722Z,13.39
2023-02-22T18:56:50.615Z,13.32
2023-02-22T18:59:38.116Z,13.27
2023-02-22T19:02:25.554Z,13.24
2023-02-22T19:05:12.758Z,13.12
2023-02-22T19:07:59.078Z,13.17
2023-02-22T19:10:45.283Z,13.10
2023-02-22T19:13:32.065Z,13.04
2023-02-22T19:16:22.877Z,13.03
2023-02-22T19:19:09.584Z,12.97
2023-02-22T19:21:56.479Z,12.94
2023-02-22T19:24:45.744Z,12.89
2023-02-22T19:27:34.048Z,12.78
2023-02-22T19:30:20.256Z,12.73
2023-02-22T19:33:06.437Z,12.71
2023-02-22T19:35:52.432Z,12.62
2023-02-22T19:38:39.344Z,12.55
2023-02-22T19:41:25.459Z,12.52
2023-02-22T19:44:12.385Z,12.48
2023-02-22T19:46:58.120Z,12.32
2023-02-22T19:49:43.957Z,12.37
2023-02-22T19:52:29.910Z,12.28
2023-02-22T19:55:15.943Z,12.19
2023-02-22T19:58:02.101Z,12.19
2023-02-22T20:00:47.959Z,12.12
2023-02-22T20:03:35.300Z,12.06
2023-02-22T20:06:23.138Z,12.00
2023-02-22T20:09:12.501Z,11.99
2023-02-22T20:11:58.733Z,11.89
2023-02-22T20:14:46.320Z,11.84
2023-02-22T20:17:32.664Z,11.66
2023-02-22T20:20:18.799Z,11.38
2023-02-22T20:23:07.601Z,11.42
2023-02-22T20:25:55.120Z,11.38
2023-02-22T20:28:41.363Z,11.33
2023-02-22T20:31:29.631Z,11.31
2023-02-22T20:34:15.620Z,11.20
2023-02-22T20:37:02.486Z,11.18
2023-02-22T20:39:50.763Z,11.15
2023-02-22T20:42:36.888Z,11.04
2023-02-22T20:45:22.979Z,11.11
2023-02-22T20:48:09.232Z,11.06
2023-02-22T20:50:55.214Z,11.00
2023-02-22T20:53:42.106Z,10.92
2023-02-22T20:56:30.167Z,10.97
2023-02-22T20:59:17.881Z,11.01
2023-02-22T21:02:04.252Z,10.98
2023-02-22T21:04:50.161Z,10.95
2023-02-22T21:07:35.978Z,10.90
2023-02-22T21:10:21.880Z,10.90
2023-02-22T21:13:11.243Z,10.87
2023-02-22T21:15:57.565Z,10.85
2023-02-22T21:18:43.532Z,10.77
2023-02-22T21:21:30.045Z,10.71
2023-02-22T21:24:16.005Z,10.62
2023-02-22T21:27:02.597Z,10.67
2023-02-22T21:29:48.626Z,10.61
2023-02-22T21:32:35.631Z,10.63
2023-02-22T21:35:23.137Z,10.60
2023-02-22T21:38:14.463Z,10.53
2023-02-22T21:41:03.322Z,10.47
2023-02-22T21:43:53.177Z,10.46
2023-02-22T21:46:39.439Z,10.40
2023-02-22T21:49:25.426Z,10.42
2023-02-22T21:52:11.272Z,10.36
2023-02-22T21:54:57.196Z,10.33
2023-02-22T21:57:43.076Z,10.32
2023-02-22T22:00:29.264Z,10.21
2023-02-22T22:03:20.506Z,10.26
2023-02-22T22:06:13.596Z,10.16
2023-02-22T22:09:00.189Z,10.18
2023-02-22T22:11:50.276Z,10.16
2023-02-22T22:14:37.484Z,10.11
2023-02-22T22:17:23.999Z,10.05
2023-02-22T22:20:11.692Z,10.03
2023-02-22T22:22:57.476Z,9.95
2023-02-22T22:25:43.781Z,9.95
2023-02-22T22:28:31.600Z,9.91
2023-02-22T22:31:19.670Z,9.88
2023-02-22T22:34:06.389Z,9.89
2023-02-22T22:36:52.785Z,9.84
2023-02-22T22:39:38.893Z,9.81
2023-02-22T22:42:25.047Z,9.71
2023-02-22T22:45:11.938Z,9.76
2023-02-22T22:47:57.703Z,9.71
2023-02-22T22:50:46.542Z,9.66
2023-02-22T22:53:34.163Z,9.68
2023-02-22T22:56:29.153Z,9.66
2023-02-22T22:59:15.578Z,9.57
2023-02-22T23:02:04.539Z,9.54
2023-02-22T23:04:51.718Z,9.55
2023-02-22T23:07:37.978Z,9.53
2023-02-22T23:10:30.096Z,9.49
2023-02-22T23:13:16.273Z,9.33
2023-02-22T23:16:02.201Z,9.41
2023-02-22T23:18:47.912Z,9.41
2023-02-22T23:21:35.930Z,9.36
2023-02-22T23:24:22.074Z,9.34
2023-02-22T23:27:08.161Z,9.28
2023-02-22T23:29:54.097Z,9.24
2023-02-22T23:32:41.345Z,9.26
2023-02-22T23:35:27.628Z,9.22
2023-02-22T23:38:13.560Z,9.14
2023-02-22T23:41:03.992Z,9.13
2023-02-22T23:43:51.776Z,9.12
2023-02-22T23:46:41.216Z,9.05
2023-02-22T23:49:35.874Z,9.07
2023-02-22T23:52:24.526Z,8.99
2023-02-22T23:55:10.473Z,9.00
2023-02-22T23:57:59.514Z,8.98
